Airfield :
LOGIN :

Register | Disclaimer

   EN    FR    IT 

 










Legend :    VFR   Marginal VFR   IFR   Intensive IFR   Very Intensive IFR
Visi :
Ceiling :
>= 8 km
>= 3000ft
5 to 8 km
1000 to 3000 ft
1500m to 5 km
500 to 1000 ft
800 to 1500m
200 to 500 ft
< 800m
< 200 ft
Symbols :   Thunderstorms  Fog  Heavy snow  Heavy precipitations  Wind > 20 kt
SIGMETs :     Misc.  Thunderstorms  Icing  Turbulence  Mountain Waves  Volcanic Ashes






- Airport Elevation : 526 ft
- IATA code : LTN


EGGW - London Luton

CURRENT METAR :
  • 271620Z AUTO 03005KT 3600 BR SCT018 SCT026 BKN037 03/03 Q1017

EXPIRED METARs :
  • 271550Z AUTO 01004KT 3700 BR OVC018 04/03 Q1017
  • 271520Z AUTO 02006KT 2700 BR BKN001 OVC019 03/03 Q1017
  • 271450Z AUTO 02005KT 2200 BR OVC001 03/03 Q1017
  • 271420Z AUTO 03006KT 1600 R25/1100 BR BKN001 OVC031 03/03 Q1017
  • 271350Z AUTO 02006KT 0500 R25/0375 FG VV/// 03/03 Q1018

TAF AMD TAF EGGW
Valid from the 27 at 16:00 until the 28 at 12:00 UTC


271606Z 2716/2812 02005KT 4000 BR BKN020
TEMPO 2716/2721 BKN012
BECMG 2721/2724 BKN008
TEMPO 2721/2724 RADZ BKN004
BECMG 2800/2803 BKN002
PROB40
TEMPO 2800/2812 1200 DZ OVC001
ATIS : +44 1582 395 204



MET'MAP, your aeronautical weather chart ! - Copyright ORBIFLY December 2007 - Disclaimer

ORBIFLY MET'MAP TEAM :

Programming & Development : Alexandra Zaïnal
Concept & original design : Baudouin d'Aumeries
Assistance for programming : Marc-Olivier Méhu
Technical & hardware support : Manuel Goepfert

Contact : metmap@orbifly.com




SOURCES & CREDITS :

   NOAA